sensor_id;sensor_type;location;lat;lon;timestamp;pressure;altitude;pressure_sealevel;temperature;humidity
15195;BME280;7698;42.478;23.756;2022-12-18T00:00:14;93988.84;;;9.74;100.00
15195;BME280;7698;42.478;23.756;2022-12-18T00:02:41;93990.75;;;9.67;100.00
15195;BME280;7698;42.478;23.756;2022-12-18T00:05:08;93992.41;;;9.62;100.00
15195;BME280;7698;42.478;23.756;2022-12-18T00:07:35;93996.19;;;9.54;100.00
15195;BME280;7698;42.478;23.756;2022-12-18T00:10:04;93991.06;;;9.53;100.00
15195;BME280;7698;42.478;23.756;2022-12-18T00:12:31;93996.19;;;9.54;100.00
15195;BME280;7698;42.478;23.756;2022-12-18T00:14:57;93993.88;;;9.58;100.00
15195;BME280;7698;42.478;23.756;2022-12-18T00:17:26;94010.13;;;9.56;100.00
15195;BME280;7698;42.478;23.756;2022-12-18T00:19:52;94012.25;;;9.41;100.00
15195;BME280;7698;42.478;23.756;2022-12-18T00:22:19;94010.50;;;9.28;100.00
15195;BME280;7698;42.478;23.756;2022-12-18T00:24:46;94013.72;;;9.37;100.00
15195;BME280;7698;42.478;23.756;2022-12-18T00:27:13;94020.38;;;9.21;100.00
15195;BME280;7698;42.478;23.756;2022-12-18T00:29:40;94025.63;;;9.34;100.00
15195;BME280;7698;42.478;23.756;2022-12-18T00:32:07;94025.72;;;9.14;100.00
15195;BME280;7698;42.478;23.756;2022-12-18T00:34:35;94023.31;;;9.06;100.00
15195;BME280;7698;42.478;23.756;2022-12-18T00:37:02;94030.31;;;9.01;100.00
15195;BME280;7698;42.478;23.756;2022-12-18T00:39:29;94022.75;;;8.98;100.00
15195;BME280;7698;42.478;23.756;2022-12-18T00:41:55;94020.72;;;8.93;100.00
15195;BME280;7698;42.478;23.756;2022-12-18T00:44:40;94021.88;;;9.04;100.00
15195;BME280;7698;42.478;23.756;2022-12-18T00:47:06;94022.38;;;8.88;100.00
15195;BME280;7698;42.478;23.756;2022-12-18T00:49:34;94017.50;;;8.78;100.00
15195;BME280;7698;42.478;23.756;2022-12-18T00:52:01;94016.72;;;8.71;100.00
15195;BME280;7698;42.478;23.756;2022-12-18T00:54:28;94021.16;;;8.83;100.00
15195;BME280;7698;42.478;23.756;2022-12-18T00:56:55;94020.53;;;8.88;100.00
15195;BME280;7698;42.478;23.756;2022-12-18T00:59:22;94017.88;;;8.88;100.00
15195;BME280;7698;42.478;23.756;2022-12-18T01:01:48;94017.56;;;8.65;100.00
15195;BME280;7698;42.478;23.756;2022-12-18T01:04:15;94017.56;;;8.52;100.00
15195;BME280;7698;42.478;23.756;2022-12-18T01:06:43;94023.28;;;8.62;100.00
15195;BME280;7698;42.478;23.756;2022-12-18T01:09:10;94020.69;;;8.42;100.00
15195;BME280;7698;42.478;23.756;2022-12-18T01:11:37;94024.38;;;8.41;100.00
15195;BME280;7698;42.478;23.756;2022-12-18T01:14:04;94031.97;;;8.37;100.00
15195;BME280;7698;42.478;23.756;2022-12-18T01:16:31;94045.44;;;8.29;100.00
15195;BME280;7698;42.478;23.756;2022-12-18T01:18:57;94055.47;;;8.27;100.00
15195;BME280;7698;42.478;23.756;2022-12-18T01:21:24;94053.84;;;8.26;100.00
15195;BME280;7698;42.478;23.756;2022-12-18T01:23:55;94063.66;;;8.26;100.00
15195;BME280;7698;42.478;23.756;2022-12-18T01:26:23;94064.88;;;8.23;100.00
15195;BME280;7698;42.478;23.756;2022-12-18T01:28:50;94065.53;;;8.19;100.00
15195;BME280;7698;42.478;23.756;2022-12-18T01:31:19;94068.41;;;8.17;100.00
15195;BME280;7698;42.478;23.756;2022-12-18T01:33:46;94065.13;;;8.15;100.00
15195;BME280;7698;42.478;23.756;2022-12-18T01:36:18;94065.53;;;8.12;100.00
15195;BME280;7698;42.478;23.756;2022-12-18T01:38:45;94069.41;;;8.09;100.00
15195;BME280;7698;42.478;23.756;2022-12-18T01:41:15;94071.25;;;8.09;100.00
15195;BME280;7698;42.478;23.756;2022-12-18T01:43:43;94078.00;;;8.05;100.00
15195;BME280;7698;42.478;23.756;2022-12-18T01:46:10;94074.72;;;8.03;100.00
15195;BME280;7698;42.478;23.756;2022-12-18T01:48:39;94070.84;;;7.99;100.00
15195;BME280;7698;42.478;23.756;2022-12-18T01:51:08;94069.59;;;7.95;100.00
15195;BME280;7698;42.478;23.756;2022-12-18T01:53:37;94073.28;;;7.94;100.00
15195;BME280;7698;42.478;23.756;2022-12-18T01:56:05;94075.34;;;7.92;100.00
15195;BME280;7698;42.478;23.756;2022-12-18T01:58:41;94074.13;;;7.88;100.00
15195;BME280;7698;42.478;23.756;2022-12-18T02:01:10;94075.34;;;7.85;100.00
15195;BME280;7698;42.478;23.756;2022-12-18T02:03:36;94068.41;;;7.84;100.00
15195;BME280;7698;42.478;23.756;2022-12-18T02:06:09;94068.78;;;7.81;100.00
15195;BME280;7698;42.478;23.756;2022-12-18T02:08:42;94079.84;;;7.78;100.00
15195;BME280;7698;42.478;23.756;2022-12-18T02:11:19;94086.38;;;7.75;100.00
15195;BME280;7698;42.478;23.756;2022-12-18T02:13:59;94091.06;;;7.73;100.00
15195;BME280;7698;42.478;23.756;2022-12-18T02:16:34;94092.09;;;7.72;100.00
15195;BME280;7698;42.478;23.756;2022-12-18T02:19:11;94095.78;;;7.71;100.00
15195;BME280;7698;42.478;23.756;2022-12-18T02:21:47;94094.13;;;7.70;100.00
15195;BME280;7698;42.478;23.756;2022-12-18T02:24:27;94090.44;;;7.71;100.00
15195;BME280;7698;42.478;23.756;2022-12-18T02:26:59;94094.94;;;7.71;100.00
15195;BME280;7698;42.478;23.756;2022-12-18T02:29:30;94099.66;;;7.69;100.00
15195;BME280;7698;42.478;23.756;2022-12-18T02:31:59;94095.78;;;7.65;100.00
15195;BME280;7698;42.478;23.756;2022-12-18T02:34:29;94103.13;;;7.63;100.00
15195;BME280;7698;42.478;23.756;2022-12-18T02:36:58;94103.34;;;7.61;100.00
15195;BME280;7698;42.478;23.756;2022-12-18T02:39:28;94095.38;;;7.61;100.00
15195;BME280;7698;42.478;23.756;2022-12-18T02:41:58;94099.25;;;7.59;100.00
15195;BME280;7698;42.478;23.756;2022-12-18T02:44:27;94098.00;;;7.55;100.00
15195;BME280;7698;42.478;23.756;2022-12-18T02:46:54;94105.56;;;7.51;100.00
15195;BME280;7698;42.478;23.756;2022-12-18T02:49:28;94113.72;;;7.50;100.00
15195;BME280;7698;42.478;23.756;2022-12-18T02:52:04;94109.63;;;7.47;100.00
15195;BME280;7698;42.478;23.756;2022-12-18T02:54:39;94115.34;;;7.44;100.00
15195;BME280;7698;42.478;23.756;2022-12-18T02:57:16;94111.66;;;7.38;100.00
15195;BME280;7698;42.478;23.756;2022-12-18T02:59:50;94113.72;;;7.36;100.00
15195;BME280;7698;42.478;23.756;2022-12-18T03:02:24;94118.59;;;7.33;100.00
15195;BME280;7698;42.478;23.756;2022-12-18T03:04:57;94119.00;;;7.30;100.00
15195;BME280;7698;42.478;23.756;2022-12-18T03:07:30;94122.66;;;7.29;100.00
15195;BME280;7698;42.478;23.756;2022-12-18T03:10:00;94126.53;;;7.26;100.00
15195;BME280;7698;42.478;23.756;2022-12-18T03:12:32;94122.44;;;7.24;100.00
15195;BME280;7698;42.478;23.756;2022-12-18T03:15:04;94123.44;;;7.23;100.00
15195;BME280;7698;42.478;23.756;2022-12-18T03:17:33;94128.97;;;7.21;100.00
15195;BME280;7698;42.478;23.756;2022-12-18T03:20:04;94138.13;;;7.19;100.00
15195;BME280;7698;42.478;23.756;2022-12-18T03:22:33;94129.56;;;7.17;100.00
15195;BME280;7698;42.478;23.756;2022-12-18T03:25:03;94131.97;;;7.11;100.00
15195;BME280;7698;42.478;23.756;2022-12-18T03:27:33;94125.44;;;7.07;100.00
15195;BME280;7698;42.478;23.756;2022-12-18T03:30:05;94127.47;;;7.05;100.00
15195;BME280;7698;42.478;23.756;2022-12-18T03:32:36;94128.88;;;7.01;100.00
15195;BME280;7698;42.478;23.756;2022-12-18T03:35:07;94138.06;;;6.99;100.00
15195;BME280;7698;42.478;23.756;2022-12-18T03:37:35;94140.28;;;6.95;100.00
15195;BME280;7698;42.478;23.756;2022-12-18T03:40:02;94149.66;;;6.91;100.00
15195;BME280;7698;42.478;23.756;2022-12-18T03:42:36;94164.34;;;6.87;100.00
15195;BME280;7698;42.478;23.756;2022-12-18T03:45:09;94159.03;;;6.87;100.00
15195;BME280;7698;42.478;23.756;2022-12-18T03:47:41;94169.00;;;6.85;100.00
15195;BME280;7698;42.478;23.756;2022-12-18T03:50:14;94171.91;;;6.84;100.00
15195;BME280;7698;42.478;23.756;2022-12-18T03:52:48;94174.56;;;6.84;100.00
15195;BME280;7698;42.478;23.756;2022-12-18T03:55:17;94182.72;;;6.82;100.00
15195;BME280;7698;42.478;23.756;2022-12-18T03:57:47;94182.06;;;6.80;100.00
15195;BME280;7698;42.478;23.756;2022-12-18T04:00:17;94182.47;;;6.77;100.00
15195;BME280;7698;42.478;23.756;2022-12-18T04:02:50;94182.47;;;6.77;100.00
15195;BME280;7698;42.478;23.756;2022-12-18T04:05:18;94193.28;;;6.75;100.00
15195;BME280;7698;42.478;23.756;2022-12-18T04:07:47;94188.16;;;6.74;100.00
15195;BME280;7698;42.478;23.756;2022-12-18T04:10:15;94194.66;;;6.71;100.00
15195;BME280;7698;42.478;23.756;2022-12-18T04:12:42;94190.56;;;6.69;100.00
15195;BME280;7698;42.478;23.756;2022-12-18T04:15:12;94197.06;;;6.66;100.00
15195;BME280;7698;42.478;23.756;2022-12-18T04:17:43;94197.28;;;6.65;100.00
15195;BME280;7698;42.478;23.756;2022-12-18T04:20:13;94207.88;;;6.65;100.00
15195;BME280;7698;42.478;23.756;2022-12-18T04:22:40;94197.06;;;6.66;100.00
15195;BME280;7698;42.478;23.756;2022-12-18T04:25:07;94199.53;;;6.68;100.00
15195;BME280;7698;42.478;23.756;2022-12-18T04:27:34;94204.84;;;6.68;100.00
15195;BME280;7698;42.478;23.756;2022-12-18T04:30:01;94206.44;;;6.62;100.00
15195;BME280;7698;42.478;23.756;2022-12-18T04:32:29;94204.97;;;6.60;100.00
15195;BME280;7698;42.478;23.756;2022-12-18T04:34:56;94209.47;;;6.59;100.00
15195;BME280;7698;42.478;23.756;2022-12-18T04:37:23;94212.94;;;6.60;100.00
15195;BME280;7698;42.478;23.756;2022-12-18T04:39:49;94217.25;;;6.61;100.00
15195;BME280;7698;42.478;23.756;2022-12-18T04:42:16;94213.53;;;6.55;100.00
15195;BME280;7698;42.478;23.756;2022-12-18T04:44:43;94219.03;;;6.54;100.00
15195;BME280;7698;42.478;23.756;2022-12-18T04:47:10;94231.25;;;6.48;100.00
15195;BME280;7698;42.478;23.756;2022-12-18T04:49:38;94226.13;;;6.47;100.00
15195;BME280;7698;42.478;23.756;2022-12-18T04:52:07;94239.38;;;6.47;100.00
15195;BME280;7698;42.478;23.756;2022-12-18T04:54:34;94227.94;;;6.46;100.00
15195;BME280;7698;42.478;23.756;2022-12-18T04:57:01;94240.41;;;6.45;100.00
15195;BME280;7698;42.478;23.756;2022-12-18T04:59:28;94244.44;;;6.41;100.00
15195;BME280;7698;42.478;23.756;2022-12-18T05:01:54;94255.25;;;6.40;100.00
15195;BME280;7698;42.478;23.756;2022-12-18T05:04:21;94260.53;;;6.40;100.00
15195;BME280;7698;42.478;23.756;2022-12-18T05:06:50;94260.72;;;6.38;100.00
15195;BME280;7698;42.478;23.756;2022-12-18T05:09:16;94258.47;;;6.35;100.00
15195;BME280;7698;42.478;23.756;2022-12-18T05:11:43;94262.94;;;6.35;100.00
15195;BME280;7698;42.478;23.756;2022-12-18T05:14:10;94262.31;;;6.33;100.00
15195;BME280;7698;42.478;23.756;2022-12-18T05:16:37;94280.06;;;6.32;100.00
15195;BME280;7698;42.478;23.756;2022-12-18T05:19:03;94289.03;;;6.31;100.00
15195;BME280;7698;42.478;23.756;2022-12-18T05:21:30;94291.84;;;6.30;100.00
15195;BME280;7698;42.478;23.756;2022-12-18T05:23:58;94288.38;;;6.29;100.00
15195;BME280;7698;42.478;23.756;2022-12-18T05:26:25;94294.72;;;6.28;100.00
15195;BME280;7698;42.478;23.756;2022-12-18T05:28:52;94301.88;;;6.28;100.00
15195;BME280;7698;42.478;23.756;2022-12-18T05:31:19;94306.16;;;6.29;100.00
15195;BME280;7698;42.478;23.756;2022-12-18T05:33:46;94306.94;;;6.29;100.00
15195;BME280;7698;42.478;23.756;2022-12-18T05:36:12;94302.69;;;6.28;100.00
15195;BME280;7698;42.478;23.756;2022-12-18T05:38:40;94297.56;;;6.27;100.00
15195;BME280;7698;42.478;23.756;2022-12-18T05:41:08;94317.13;;;6.26;100.00
15195;BME280;7698;42.478;23.756;2022-12-18T05:43:36;94306.72;;;6.24;100.00
15195;BME280;7698;42.478;23.756;2022-12-18T05:46:05;94316.69;;;6.22;100.00
15195;BME280;7698;42.478;23.756;2022-12-18T05:48:32;94318.69;;;6.20;100.00
15195;BME280;7698;42.478;23.756;2022-12-18T05:51:04;94318.69;;;6.20;100.00
15195;BME280;7698;42.478;23.756;2022-12-18T05:53:32;94320.91;;;6.17;100.00
15195;BME280;7698;42.478;23.756;2022-12-18T05:56:00;94320.47;;;6.13;100.00
15195;BME280;7698;42.478;23.756;2022-12-18T05:58:30;94319.00;;;6.10;100.00
15195;BME280;7698;42.478;23.756;2022-12-18T06:00:57;94322.47;;;6.11;100.00
15195;BME280;7698;42.478;23.756;2022-12-18T06:03:24;94329.59;;;6.10;100.00
15195;BME280;7698;42.478;23.756;2022-12-18T06:05:51;94325.50;;;6.08;100.00
15195;BME280;7698;42.478;23.756;2022-12-18T06:08:18;94332.81;;;6.06;100.00
15195;BME280;7698;42.478;23.756;2022-12-18T06:10:50;94331.34;;;6.03;100.00
15195;BME280;7698;42.478;23.756;2022-12-18T06:13:18;94335.00;;;6.02;100.00
15195;BME280;7698;42.478;23.756;2022-12-18T06:15:46;94338.47;;;6.03;100.00
15195;BME280;7698;42.478;23.756;2022-12-18T06:18:13;94330.53;;;6.03;100.00
15195;BME280;7698;42.478;23.756;2022-12-18T06:20:40;94337.28;;;6.05;100.00
15195;BME280;7698;42.478;23.756;2022-12-18T06:23:07;94342.13;;;6.02;100.00
15195;BME280;7698;42.478;23.756;2022-12-18T06:25:37;94338.88;;;6.00;100.00
15195;BME280;7698;42.478;23.756;2022-12-18T06:28:05;94342.72;;;5.97;100.00
15195;BME280;7698;42.478;23.756;2022-12-18T06:30:32;94344.09;;;5.93;100.00
15195;BME280;7698;42.478;23.756;2022-12-18T06:33:00;94360.38;;;5.90;100.00
15195;BME280;7698;42.478;23.756;2022-12-18T06:35:27;94355.41;;;5.87;100.00
15195;BME280;7698;42.478;23.756;2022-12-18T06:37:54;94366.19;;;5.86;100.00
15195;BME280;7698;42.478;23.756;2022-12-18T06:40:21;94372.13;;;5.88;100.00
15195;BME280;7698;42.478;23.756;2022-12-18T06:42:47;94374.06;;;5.94;100.00
15195;BME280;7698;42.478;23.756;2022-12-18T06:45:15;94374.91;;;5.94;100.00
15195;BME280;7698;42.478;23.756;2022-12-18T06:47:42;94391.25;;;5.98;100.00
15195;BME280;7698;42.478;23.756;2022-12-18T06:50:11;94395.56;;;5.99;100.00
15195;BME280;7698;42.478;23.756;2022-12-18T06:52:38;94402.50;;;6.00;100.00
15195;BME280;7698;42.478;23.756;2022-12-18T06:55:06;94403.09;;;6.02;100.00
15195;BME280;7698;42.478;23.756;2022-12-18T07:04:17;94408.22;;;6.03;100.00
15195;BME280;7698;42.478;23.756;2022-12-18T07:06:45;94417.00;;;6.04;100.00
15195;BME280;7698;42.478;23.756;2022-12-18T07:09:12;94411.53;;;6.05;100.00
15195;BME280;7698;42.478;23.756;2022-12-18T07:11:39;94417.47;;;6.07;100.00
15195;BME280;7698;42.478;23.756;2022-12-18T07:14:06;94418.09;;;6.09;100.00
15195;BME280;7698;42.478;23.756;2022-12-18T07:16:32;94421.84;;;6.15;100.00
15195;BME280;7698;42.478;23.756;2022-12-18T07:18:59;94418.66;;;6.20;100.00
15195;BME280;7698;42.478;23.756;2022-12-18T07:21:26;94408.13;;;6.26;100.00
15195;BME280;7698;42.478;23.756;2022-12-18T07:23:54;94415.31;;;6.32;100.00
15195;BME280;7698;42.478;23.756;2022-12-18T07:26:22;94411.56;;;6.41;100.00
15195;BME280;7698;42.478;23.756;2022-12-18T07:28:49;94405.88;;;6.44;100.00
15195;BME280;7698;42.478;23.756;2022-12-18T07:31:19;94397.81;;;6.53;100.00
15195;BME280;7698;42.478;23.756;2022-12-18T07:33:46;94409.28;;;6.60;100.00
15195;BME280;7698;42.478;23.756;2022-12-18T07:36:13;94408.56;;;6.66;100.00
15195;BME280;7698;42.478;23.756;2022-12-18T07:38:40;94412.09;;;6.73;100.00
15195;BME280;7698;42.478;23.756;2022-12-18T07:41:10;94414.00;;;6.79;100.00
15195;BME280;7698;42.478;23.756;2022-12-18T07:43:37;94414.63;;;6.81;100.00
15195;BME280;7698;42.478;23.756;2022-12-18T07:46:05;94422.19;;;6.84;100.00
15195;BME280;7698;42.478;23.756;2022-12-18T07:48:32;94417.94;;;6.83;100.00
15195;BME280;7698;42.478;23.756;2022-12-18T07:50:59;94420.19;;;6.86;100.00
15195;BME280;7698;42.478;23.756;2022-12-18T07:53:25;94430.41;;;6.89;100.00
15195;BME280;7698;42.478;23.756;2022-12-18T07:55:55;94431.06;;;6.91;100.00
15195;BME280;7698;42.478;23.756;2022-12-18T07:58:23;94433.97;;;6.96;100.00
15195;BME280;7698;42.478;23.756;2022-12-18T08:00:51;94431.13;;;6.98;100.00
15195;BME280;7698;42.478;23.756;2022-12-18T08:03:18;94425.81;;;6.98;100.00
15195;BME280;7698;42.478;23.756;2022-12-18T08:05:45;94434.22;;;7.01;100.00
15195;BME280;7698;42.478;23.756;2022-12-18T08:08:12;94442.66;;;7.05;100.00
15195;BME280;7698;42.478;23.756;2022-12-18T08:10:39;94437.16;;;7.06;100.00
15195;BME280;7698;42.478;23.756;2022-12-18T08:13:06;94454.28;;;7.04;100.00
15195;BME280;7698;42.478;23.756;2022-12-18T08:15:34;94456.28;;;7.02;100.00
15195;BME280;7698;42.478;23.756;2022-12-18T08:18:01;94452.00;;;7.01;100.00
15195;BME280;7698;42.478;23.756;2022-12-18T08:20:27;94456.47;;;7.00;100.00
15195;BME280;7698;42.478;23.756;2022-12-18T08:22:54;94456.28;;;7.02;100.00
15195;BME280;7698;42.478;23.756;2022-12-18T08:25:23;94466.34;;;7.06;100.00
15195;BME280;7698;42.478;23.756;2022-12-18T08:27:50;94466.34;;;7.06;100.00
15195;BME280;7698;42.478;23.756;2022-12-18T08:30:17;94468.63;;;7.09;100.00
15195;BME280;7698;42.478;23.756;2022-12-18T08:32:45;94471.28;;;7.09;100.00
15195;BME280;7698;42.478;23.756;2022-12-18T08:35:12;94468.22;;;7.12;100.00
15195;BME280;7698;42.478;23.756;2022-12-18T08:37:39;94474.81;;;7.17;100.00
15195;BME280;7698;42.478;23.756;2022-12-18T08:40:07;94463.34;;;7.16;100.00
15195;BME280;7698;42.478;23.756;2022-12-18T08:42:34;94468.09;;;7.21;100.00
15195;BME280;7698;42.478;23.756;2022-12-18T08:45:18;94465.81;;;7.18;100.00
15195;BME280;7698;42.478;23.756;2022-12-18T08:47:47;94466.84;;;7.17;100.00
15195;BME280;7698;42.478;23.756;2022-12-18T08:50:13;94459.69;;;7.17;100.00
15195;BME280;7698;42.478;23.756;2022-12-18T08:52:40;94469.75;;;7.22;100.00
15195;BME280;7698;42.478;23.756;2022-12-18T08:55:08;94468.81;;;7.29;100.00
15195;BME280;7698;42.478;23.756;2022-12-18T08:57:35;94466.41;;;7.34;100.00
15195;BME280;7698;42.478;23.756;2022-12-18T09:00:03;94463.56;;;7.36;100.00
15195;BME280;7698;42.478;23.756;2022-12-18T09:02:30;94458.72;;;7.46;100.00
15195;BME280;7698;42.478;23.756;2022-12-18T09:04:59;94461.13;;;7.62;100.00
15195;BME280;7698;42.478;23.756;2022-12-18T09:07:25;94459.75;;;7.73;100.00
15195;BME280;7698;42.478;23.756;2022-12-18T09:09:52;94467.06;;;7.64;100.00
15195;BME280;7698;42.478;23.756;2022-12-18T09:12:20;94467.81;;;7.58;100.00
15195;BME280;7698;42.478;23.756;2022-12-18T09:14:47;94473.16;;;7.58;100.00
15195;BME280;7698;42.478;23.756;2022-12-18T09:17:14;94471.13;;;7.60;100.00
15195;BME280;7698;42.478;23.756;2022-12-18T09:19:40;94486.44;;;7.58;100.00
15195;BME280;7698;42.478;23.756;2022-12-18T09:22:09;94481.13;;;7.58;100.00
15195;BME280;7698;42.478;23.756;2022-12-18T09:24:36;94482.75;;;7.59;100.00
15195;BME280;7698;42.478;23.756;2022-12-18T09:27:02;94477.81;;;7.56;100.00
15195;BME280;7698;42.478;23.756;2022-12-18T09:29:30;94479.97;;;7.46;100.00
15195;BME280;7698;42.478;23.756;2022-12-18T09:31:56;94484.41;;;7.39;100.00
15195;BME280;7698;42.478;23.756;2022-12-18T09:34:23;94483.34;;;7.33;100.00
15195;BME280;7698;42.478;23.756;2022-12-18T09:36:50;94487.22;;;7.31;100.00
15195;BME280;7698;42.478;23.756;2022-12-18T09:39:19;94482.16;;;7.36;100.00
15195;BME280;7698;42.478;23.756;2022-12-18T09:41:47;94485.28;;;7.46;100.00
15195;BME280;7698;42.478;23.756;2022-12-18T09:44:23;94487.75;;;7.47;100.00
15195;BME280;7698;42.478;23.756;2022-12-18T09:46:58;94491.00;;;7.43;100.00
15195;BME280;7698;42.478;23.756;2022-12-18T09:49:30;94488.47;;;7.35;100.00
15195;BME280;7698;42.478;23.756;2022-12-18T09:52:02;94480.63;;;7.27;100.00
15195;BME280;7698;42.478;23.756;2022-12-18T09:54:35;94483.47;;;7.25;100.00
15195;BME280;7698;42.478;23.756;2022-12-18T09:57:14;94483.84;;;7.22;100.00
15195;BME280;7698;42.478;23.756;2022-12-18T09:59:44;94486.69;;;7.21;100.00
15195;BME280;7698;42.478;23.756;2022-12-18T10:02:17;94484.41;;;7.18;100.00
15195;BME280;7698;42.478;23.756;2022-12-18T10:04:53;94489.47;;;7.12;100.00
15195;BME280;7698;42.478;23.756;2022-12-18T10:07:26;94493.53;;;7.08;100.00
15195;BME280;7698;42.478;23.756;2022-12-18T10:10:02;94483.75;;;7.09;100.00
15195;BME280;7698;42.478;23.756;2022-12-18T10:12:37;94475.59;;;7.10;100.00
15195;BME280;7698;42.478;23.756;2022-12-18T10:15:13;94482.13;;;7.14;100.00
15195;BME280;7698;42.478;23.756;2022-12-18T10:17:45;94492.47;;;7.24;100.00
15195;BME280;7698;42.478;23.756;2022-12-18T10:20:20;94483.56;;;7.32;100.00
15195;BME280;7698;42.478;23.756;2022-12-18T10:22:56;94483.63;;;7.38;100.00
15195;BME280;7698;42.478;23.756;2022-12-18T10:25:29;94478.53;;;7.43;100.00
15195;BME280;7698;42.478;23.756;2022-12-18T10:28:07;94479.72;;;7.41;100.00
15195;BME280;7698;42.478;23.756;2022-12-18T10:30:35;94479.16;;;7.45;100.00
15195;BME280;7698;42.478;23.756;2022-12-18T10:33:02;94480.03;;;7.53;100.00
15195;BME280;7698;42.478;23.756;2022-12-18T10:35:29;94485.03;;;7.62;100.00
15195;BME280;7698;42.478;23.756;2022-12-18T10:38:00;94480.16;;;7.66;100.00
15195;BME280;7698;42.478;23.756;2022-12-18T10:40:29;94477.28;;;7.67;100.00
15195;BME280;7698;42.478;23.756;2022-12-18T10:43:11;94483.03;;;7.71;100.00
15195;BME280;7698;42.478;23.756;2022-12-18T10:45:40;94477.28;;;7.67;100.00
15195;BME280;7698;42.478;23.756;2022-12-18T10:48:18;94478.94;;;7.68;100.00
15195;BME280;7698;42.478;23.756;2022-12-18T10:50:47;94469.75;;;7.71;99.72
15195;BME280;7698;42.478;23.756;2022-12-18T10:53:19;94460.56;;;7.73;99.16
15195;BME280;7698;42.478;23.756;2022-12-18T10:55:48;94467.53;;;7.74;98.98
15195;BME280;7698;42.478;23.756;2022-12-18T10:58:21;94458.53;;;7.75;98.49
15195;BME280;7698;42.478;23.756;2022-12-18T11:01:04;94466.50;;;7.75;97.34
15195;BME280;7698;42.478;23.756;2022-12-18T11:03:33;94462.59;;;7.71;95.94
15195;BME280;7698;42.478;23.756;2022-12-18T11:06:04;94464.63;;;7.69;95.59
15195;BME280;7698;42.478;23.756;2022-12-18T11:08:32;94459.31;;;7.69;95.43
15195;BME280;7698;42.478;23.756;2022-12-18T11:11:00;94461.78;;;7.71;95.95
15195;BME280;7698;42.478;23.756;2022-12-18T11:13:29;94461.75;;;7.64;95.62
15195;BME280;7698;42.478;23.756;2022-12-18T11:15:57;94458.47;;;7.69;94.97
15195;BME280;7698;42.478;23.756;2022-12-18T11:18:26;94467.91;;;7.71;95.31
15195;BME280;7698;42.478;23.756;2022-12-18T11:20:56;94471.19;;;7.73;94.45
15195;BME280;7698;42.478;23.756;2022-12-18T11:23:24;94470.19;;;7.74;94.82
15195;BME280;7698;42.478;23.756;2022-12-18T11:25:54;94472.22;;;7.72;93.92
15195;BME280;7698;42.478;23.756;2022-12-18T11:28:36;94470.38;;;7.73;94.34
15195;BME280;7698;42.478;23.756;2022-12-18T11:31:22;94471.19;;;7.73;94.09
15195;BME280;7698;42.478;23.756;2022-12-18T11:34:00;94468.34;;;7.75;94.11
15195;BME280;7698;42.478;23.756;2022-12-18T11:36:30;94471.06;;;7.81;94.03
15195;BME280;7698;42.478;23.756;2022-12-18T11:39:04;94462.91;;;7.83;94.06
15195;BME280;7698;42.478;23.756;2022-12-18T11:41:36;94468.03;;;7.85;93.32
15195;BME280;7698;42.478;23.756;2022-12-18T11:44:42;94455.09;;;7.81;93.31
15195;BME280;7698;42.478;23.756;2022-12-18T11:47:18;94457.78;;;7.81;92.24
15195;BME280;7698;42.478;23.756;2022-12-18T11:49:49;94464.72;;;7.82;92.51
15195;BME280;7698;42.478;23.756;2022-12-18T11:52:18;94467.38;;;7.82;91.25
15195;BME280;7698;42.478;23.756;2022-12-18T11:54:51;94454.09;;;7.82;91.14
15195;BME280;7698;42.478;23.756;2022-12-18T11:57:26;94463.28;;;7.80;91.10
15195;BME280;7698;42.478;23.756;2022-12-18T12:00:02;94459.03;;;7.86;91.74
15195;BME280;7698;42.478;23.756;2022-12-18T12:03:07;94461.06;;;7.84;90.29
15195;BME280;7698;42.478;23.756;2022-12-18T12:05:55;94465.94;;;7.80;89.38
15195;BME280;7698;42.478;23.756;2022-12-18T12:08:33;94448.53;;;7.77;89.18
15195;BME280;7698;42.478;23.756;2022-12-18T12:11:10;94450.94;;;7.72;89.13
15195;BME280;7698;42.478;23.756;2022-12-18T12:13:49;94447.53;;;7.78;89.63
15195;BME280;7698;42.478;23.756;2022-12-18T12:16:24;94452.25;;;7.83;89.26
15195;BME280;7698;42.478;23.756;2022-12-18T12:19:10;94450.22;;;7.85;89.07
15195;BME280;7698;42.478;23.756;2022-12-18T12:21:40;94459.47;;;7.89;89.00
15195;BME280;7698;42.478;23.756;2022-12-18T12:24:19;94458.66;;;7.89;88.30
15195;BME280;7698;42.478;23.756;2022-12-18T12:26:53;94460.66;;;7.87;88.65
15195;BME280;7698;42.478;23.756;2022-12-18T12:29:33;94469.72;;;7.92;89.04
15195;BME280;7698;42.478;23.756;2022-12-18T12:32:16;94471.97;;;7.95;88.98
15195;BME280;7698;42.478;23.756;2022-12-18T12:34:55;94483.84;;;7.93;89.10
15195;BME280;7698;42.478;23.756;2022-12-18T12:37:36;94477.91;;;7.97;89.35
15195;BME280;7698;42.478;23.756;2022-12-18T12:40:09;94479.31;;;7.93;88.52
15195;BME280;7698;42.478;23.756;2022-12-18T12:42:41;94484.22;;;7.90;88.35
15195;BME280;7698;42.478;23.756;2022-12-18T12:45:39;94488.78;;;7.74;87.99
15195;BME280;7698;42.478;23.756;2022-12-18T12:48:16;94501.81;;;7.63;88.87
15195;BME280;7698;42.478;23.756;2022-12-18T12:50:45;94509.47;;;7.51;88.52
15195;BME280;7698;42.478;23.756;2022-12-18T12:53:21;94503.44;;;7.42;89.72
15195;BME280;7698;42.478;23.756;2022-12-18T12:55:50;94504.28;;;7.43;90.98
15195;BME280;7698;42.478;23.756;2022-12-18T12:58:29;94503.25;;;7.44;91.08
15195;BME280;7698;42.478;23.756;2022-12-18T13:01:08;94503.91;;;7.46;91.80
15195;BME280;7698;42.478;23.756;2022-12-18T13:03:44;94511.94;;;7.53;92.51
15195;BME280;7698;42.478;23.756;2022-12-18T13:06:19;94519.97;;;7.59;91.96
15195;BME280;7698;42.478;23.756;2022-12-18T13:08:55;94525.09;;;7.61;92.03
15195;BME280;7698;42.478;23.756;2022-12-18T13:11:32;94524.31;;;7.67;92.25
15195;BME280;7698;42.478;23.756;2022-12-18T13:14:28;94530.44;;;7.67;91.87
15195;BME280;7698;42.478;23.756;2022-12-18T13:17:26;94532.91;;;7.69;93.01
15195;BME280;7698;42.478;23.756;2022-12-18T13:20:09;94534.75;;;7.68;92.68
15195;BME280;7698;42.478;23.756;2022-12-18T13:22:38;94530.84;;;7.64;92.98
15195;BME280;7698;42.478;23.756;2022-12-18T13:25:27;94534.13;;;7.66;93.47